»·PEaware :: N646CB KSMX-KBFL

N646CB :: KSMX-KBFL

FLIGHT INFORMATION

Flight Status: Arrived
Operator: Privately registered:
United States
More flights under this callsign
Pilot: Neill H. (30148)
Aircraft: CESSNA 172 SKYHAWK
(C172)
More flights by this aircraft type
Origin: KSMX Santa Maria Pub/Capt Hancock
United States
Destination: KBFL Meadows
United States
More flights between these airports :: More routes between these airports
Route: FLW
File this flight plan on PilotEdge
Remarks:
Altitude:
(Current/Filed)
7,500ft
Speed:
(Current/Filed)
110kts
Departed: 13-Jan-21 03:33 PM
Arrived: 13-Jan-21 04:22 PM
Distance/Time
Traveled:
76nm/0:49
Distance/Time
To Go:
Arrived

Flight Plot

Page will automatically refresh every two minutes.


Map Options




Map Legend


Flown Route
Filed Route
Departure Airport
Arrival Airport
Navaid (VOR, NDB)
Fix

Horizontal Profiles

Position Reports

Time Latitude Longitude Heading Altitude Ground
Speed
13-Jan-21 15:22 34.894336 -120.443496 136 265ft 0kts
13-Jan-21 15:23 34.894336 -120.443496 136 265ft 0kts
13-Jan-21 15:24 34.894336 -120.443496 136 265ft 0kts
13-Jan-21 15:25 34.894336 -120.443496 136 265ft 0kts
13-Jan-21 15:26 34.894163 -120.443516 216 265ft 0kts
13-Jan-21 15:27 34.894012 -120.444776 267 265ft 9kts
13-Jan-21 15:28 34.893343 -120.445096 204 265ft 0kts
13-Jan-21 15:29 34.893343 -120.445096 205 265ft 0kts
13-Jan-21 15:30 34.893343 -120.445096 205 265ft 0kts
13-Jan-21 15:31 34.892827 -120.445560 234 265ft 12kts
13-Jan-21 15:32 34.902493 -120.456577 314 753ft 69kts
13-Jan-21 15:33 34.916068 -120.458973 79 1612ft 91kts
13-Jan-21 15:34 34.913908 -120.427619 80 2480ft 91kts
13-Jan-21 15:35 34.919645 -120.399904 61 3377ft 77kts
13-Jan-21 15:36 34.927695 -120.374348 60 4138ft 89kts
13-Jan-21 15:37 34.937509 -120.344107 61 4841ft 101kts
13-Jan-21 15:38 34.947784 -120.312534 60 5634ft 93kts
13-Jan-21 15:40 34.956153 -120.286960 57 6467ft 78kts
13-Jan-21 15:41 34.966461 -120.255770 61 6799ft 113kts
13-Jan-21 15:42 34.977074 -120.223020 60 7491ft 102kts
13-Jan-21 15:43 34.987821 -120.190008 61 7504ft 105kts
13-Jan-21 15:44 34.998886 -120.156043 62 7486ft 106kts
13-Jan-21 15:45 35.009398 -120.123702 61 7497ft 96kts
13-Jan-21 15:46 35.019017 -120.094276 62 7499ft 95kts
13-Jan-21 15:47 35.029524 -120.061982 63 7496ft 107kts
13-Jan-21 15:48 35.041205 -120.025931 64 7382ft 116kts
13-Jan-21 15:49 35.052929 -119.989749 64 7381ft 113kts
13-Jan-21 15:50 35.064521 -119.953964 64 7382ft 113kts
13-Jan-21 15:51 35.076039 -119.918372 64 7383ft 113kts
13-Jan-21 15:52 35.087569 -119.882717 64 7383ft 112kts
13-Jan-21 15:53 35.100663 -119.848221 58 7383ft 112kts
13-Jan-21 15:54 35.114120 -119.816433 58 7383ft 112kts
13-Jan-21 15:55 35.128313 -119.783052 58 7382ft 112kts
13-Jan-21 15:56 35.142575 -119.749524 58 7384ft 112kts
13-Jan-21 15:57 35.156899 -119.715815 58 7402ft 112kts
13-Jan-21 15:57 35.168728 -119.687967 57 7417ft 111kts
13-Jan-21 15:58 35.183040 -119.654249 57 7436ft 111kts
13-Jan-21 16:00 35.199637 -119.615106 57 7457ft 111kts
13-Jan-21 16:00 35.211367 -119.587407 57 7474ft 110kts
13-Jan-21 16:01 35.225413 -119.554197 56 7492ft 110kts
13-Jan-21 16:03 35.241879 -119.515245 56 7510ft 110kts
13-Jan-21 16:03 35.253647 -119.487382 56 7510ft 111kts
13-Jan-21 16:04 35.267853 -119.453710 56 7510ft 111kts
13-Jan-21 16:05 35.281998 -119.420146 56 7510ft 111kts
13-Jan-21 16:06 35.296140 -119.386561 56 7510ft 111kts
13-Jan-21 16:07 35.310262 -119.352988 56 7510ft 111kts
13-Jan-21 16:08 35.324086 -119.320089 57 7508ft 110kts
13-Jan-21 16:09 35.337878 -119.287206 56 7500ft 106kts
13-Jan-21 16:10 35.351375 -119.254956 57 6935ft 103kts
13-Jan-21 16:11 35.364563 -119.223491 57 6047ft 104kts
13-Jan-21 16:12 35.378566 -119.192614 55 5155ft 104kts
13-Jan-21 16:13 35.393462 -119.161643 54 4153ft 90kts
13-Jan-21 16:14 35.406037 -119.137971 43 3233ft 80kts
13-Jan-21 16:15 35.420648 -119.117724 42 2302ft 79kts
13-Jan-21 16:16 35.435683 -119.099023 49 1508ft 66kts
13-Jan-21 16:17 35.440046 -119.081023 135 1392ft 64kts
13-Jan-21 16:18 35.424538 -119.065090 148 1275ft 76kts
13-Jan-21 16:19 35.415341 -119.045994 55 1038ft 88kts
13-Jan-21 16:20 35.431266 -119.056743 317 479ft 62kts
13-Jan-21 16:21 35.434072 -119.060905 196 483ft 5kts
13-Jan-21 16:22 35.432205 -119.059407 226 479ft 10kts
13-Jan-21 16:23 35.431959 -119.059784 32 478ft 0kts
13-Jan-21 16:24 35.431959 -119.059784 32 478ft 0kts
13-Jan-21 16:25 35.431959 -119.059784 32 478ft 0kts
13-Jan-21 16:26 35.431959 -119.059784 32 478ft 0kts

Navigation Log

Ident Type
Flight plan parsing failed, navigation log unavailable